Mesquite, Nevada Weather observations

Data are for observation ending at time listed.
 Day   Time    Ave.   Ave.  Ave.  Vector   Max.   Stn.    Total    Solar   Ave.  
  of    of     Air    Rel.  Wind   Wind    Wind   Baro.  Precip.   Rad.    Soil  
Year   Day     Temp.  Hum.  Speed  Dir.    Gust   Pres.                    Temp. 
2015   (PST)    F      %     mph   deg.    mph     mb.     in.     W/m2     F   
------------------------------------------------------------------------------
 209   14:10  103.4     9    4.6   233      9.6   947.9    0.00     607    119.7
 209   14:20  103.2     9    3.2   182      6.3   947.7    0.00     591    125.1
 209   14:30  104.8     8    3.6   186      8.0   947.5    0.00     572    121.9
 209   14:40  103.8     8    3.5   230      7.7   947.4    0.00     553    119.2
 209   14:50  104.4     8    2.5   359      5.6   947.3    0.00     535    126.9
 209   15:00  103.9     8    4.4   220      9.8   947.1    0.00     518    120.0
 209   15:10  104.0     8    3.9   255      9.8   947.0    0.00     496    122.7
 209   15:20  103.3     8    6.8   243     13.7   946.9    0.00     476    117.2
 209   15:30  104.5     7    3.5   250     11.3   946.9    0.00     454    118.7
 209   15:40  103.4     8    5.5   240     10.5   946.8    0.00     433    116.7
 209   15:50  103.4     8    4.9   245     10.3   946.7    0.00     411    118.6
 209   16:00  103.9     7    3.7   255      7.4   946.6    0.00     387    118.1
 209   16:10  104.2     7    5.4   240     10.6   946.5    0.00     362    117.2
 209   16:20  103.5     7    5.6   263     10.3   946.4    0.00     338    117.3
 209   16:30  103.5     7    5.3   232     13.5   946.4    0.00     312    115.8
 209   16:40  103.3     7    6.4   266     11.4   946.3    0.00     285    113.8
 209   16:50  102.9     7    6.3   272     11.2   946.3    0.00     258    113.5
 209   17:00  102.7     7    6.0   266     10.7   946.3    0.00     234    112.8
 209   17:10  103.1     7    3.5   234      8.6   946.3    0.00     209    114.3
 209   17:20  102.7     7    4.7   255      8.3   946.2    0.00     182    111.1
 209   17:30  103.1     8    3.2   256      7.0   946.2    0.00     157    111.9
 209   17:40  103.0     7    3.6   276      8.1   946.2    0.00     134    110.4
 209   17:50  102.9     7    3.6   234      6.6   946.3    0.00     111    109.8
 209   18:00  102.8     7    3.1   235      7.5   946.3    0.00      89    109.4
 209   18:10  102.4     7    3.2   234      6.4   946.4    0.00      63    108.2
 209   18:20  101.9     8    2.6   226      5.8   946.4    0.00      42    106.2
 209   18:30  100.3     8    2.9   234      6.5   946.4    0.00      17    104.4
 209   18:40   98.9     8    4.4   240      7.8   946.5    0.00       8    103.6
 209   18:50   98.3     9    3.6   246      6.0   946.5    0.00       5    102.7
 209   19:00   97.7     9    3.0   250      5.6   946.6    0.00       3    101.8
 209   19:10   97.0     9    3.0   255      4.4   946.6    0.00       3    100.9
 209   19:20   96.5     9    2.7   255      3.9   946.7    0.00       2    99.6
 209   19:30   95.9     9    2.5   240      3.4   946.8    0.00       1    98.7
 209   19:40   95.4    10    1.7   195      3.0   947.0    0.00       1    98.1
 209   19:50   93.6    11    1.8   167      2.9   947.1    0.00       1    97.0
 209   20:00   91.3    12    3.4    90      4.3   947.2    0.00       1    95.9
 209   20:10   89.1    12    3.3    78      4.5   947.4    0.00       1    95.0
 209   20:20   87.6    13    3.8    55      4.7   947.6    0.00       2    94.5
 209   20:30   87.1    13    3.6    45      4.6   947.7    0.00       2    94.3
 209   20:40   86.3    13    3.4    49      4.2   947.9    0.00       1    93.7
 209   20:50   86.1    12    3.5    74      4.5   948.0    0.00       1    93.1
 209   21:00   86.7    12    3.5   107      4.5   948.1    0.00       1    93.1
 209   21:10   87.3    12    3.4    78      4.3   948.3    0.00       1    92.7
 209   21:20   85.7    12    4.5    62      5.8   948.3    0.00       1    91.9
 209   21:30   85.4    12    5.8    78      7.0   948.3    0.00       1    91.8
 209   21:40   84.5    13    3.9    77      5.5   948.3    0.00       1    91.3
 209   21:50   84.1    13    3.7    60      5.8   948.4    0.00       1    91.1
 209   22:00   83.5    13    5.4    51      6.2   948.5    0.00       1    90.4
 209   22:10   84.5    12    4.5     4      7.5   948.6    0.00       1    91.4
 209   22:20   87.0    12    5.3   311      7.6   948.6    0.00       1    92.4
 209   22:30   87.5    12    2.9   295      5.2   948.7    0.00       1    91.5
 209   22:40   83.5    14    5.3   142      6.4   948.9    0.00       1    90.0
 209   22:50   84.5    13    3.4    37      8.8   948.9    0.00       1    90.5
 209   23:00   85.8    13    3.2    71      5.8   949.1    0.00       1    90.8
 209   23:10   84.8    13    4.2   100      8.0   949.2    0.00       1    90.5
 209   23:20   83.8    13    4.6    95      7.0   949.3    0.00       1    90.3
 209   23:30   83.3    13    3.5   120      5.5   949.3    0.00       1    90.0
 209   23:40   82.7    13    3.7   126      4.5   949.3    0.00       1    89.7
 209   23:50   83.2    13    2.4   155      3.3   949.4    0.00       1    89.8
 210    0:00   82.8    13    2.7   134      3.8   949.4    0.00       1    89.0
 210    0:10   80.5    16    1.6    39      2.3   949.4    0.00       1    88.0
 210    0:20   80.0    16    2.4    52      4.1   949.4    0.00       1    87.9
 210    0:30   80.3    16    2.7    37      3.7   949.4    0.00       1    87.9
 210    0:40   81.1    16    2.8     6      3.8   949.5    0.00       0    88.0
 210    0:50   82.8    14    3.3    11      5.3   949.5    0.00       1    88.2
 210    1:00   81.1    15    1.6    15      3.1   949.5    0.00       1    87.1
 210    1:10   79.4    16    1.6    50      3.7   949.4    0.00       1    86.7
 210    1:20   78.8    16    2.8    58      4.5   949.3    0.00       0    86.4
 210    1:30   77.5    17    3.8    68      5.0   949.3    0.00       0    86.0
 210    1:40   76.9    17    3.4    82      4.4   949.4    0.00       0    85.7
 210    1:50   76.7    17    3.2    50      4.7   949.4    0.00       1    85.8
 210    2:00   77.3    17    3.0    31      4.0   949.5    0.00       0    85.8
 210    2:10   77.5    16    3.7    45      4.7   949.6    0.00       0    85.4
 210    2:20   77.2    16    3.8    32      4.8   949.7    0.00       0    85.8
 210    2:30   77.5    16    3.6    23      4.3   949.9    0.00       0    85.7
 210    2:40   77.7    16    2.7     1      3.9   949.9    0.00       1    85.7
 210    2:50   79.1    16    2.5   341      4.7   949.9    0.00       0    86.2
 210    3:00   80.5    14    4.0     8      7.0   950.0    0.00       0    86.0
 210    3:10   77.4    17    3.7    94      5.5   950.1    0.00       0    85.0
 210    3:20   76.7    17    2.1    77      3.4   950.2    0.00       0    84.7
 210    3:30   76.0    18    2.7    66      3.6   950.3    0.00       0    84.4
 210    3:40   74.8    19    1.1    62      1.8   950.4    0.00       1    84.1
 210    3:50   74.5    19    2.9    18      4.9   950.5    0.00       0    84.5
 210    4:00   75.3    18    3.5    28      4.8   950.6    0.00       0    84.2
 210    4:10   74.6    19    3.7    44      5.6   950.7    0.00       0    83.8
 210    4:20   74.5    19    2.2    36      3.4   950.9    0.00       0    83.9
 210    4:30   74.4    20    2.0    55      3.7   950.9    0.00       2    83.6
 210    4:40   73.7    20    2.8    38      4.2   951.0    0.00       3    83.6
 210    4:50   73.9    20    2.5    20      3.5   951.1    0.00       3    83.7
 210    5:00   75.1    18    2.6    72      3.5   951.2    0.00       8    83.6
 210    5:10   75.2    18    2.7    70      4.2   951.4    0.00      16    83.6
 210    5:20   76.2    19    3.2    65      4.9   951.5    0.00      38    83.8
 210    5:30   75.3    20    5.4    98      6.5   951.6    0.00      46    83.7
 210    5:40   74.6    21    3.5    87      5.3   951.8    0.00      66    83.6
 210    5:50   76.3    20    2.9    89      4.3   951.9    0.00     100    84.1
 210    6:00   79.2    17    1.4   110      2.7   952.0    0.00     134    84.4
 210    6:10   80.4    18    1.1   209      2.5   952.1    0.00     153    84.5
 210    6:20   82.6    15    0.8   149      1.9   952.3    0.00     178    85.2
 210    6:30   84.8    14    0.6   125      2.0   952.4    0.00     204    85.7
 210    6:40   84.1    14    1.9   134      2.9   952.5    0.00     229    86.2
 210    6:50   83.9    14    2.4   158      3.4   952.6    0.00     255    86.0
 210    7:00   84.7    14    1.4   139      2.7   952.7    0.00     281    86.5
 210    7:10   85.2    14    1.7   106      3.7   952.8    0.00     304    86.9
 210    7:20   85.8    13    3.0    80      4.3   952.8    0.00     328    87.5
 210    7:30   86.4    13    3.5    72      5.4   952.8    0.00     353    87.9
 210    7:40   87.3    13    4.3    66      6.5   952.8    0.00     377    88.4
 210    7:50   88.4    12    5.7    68      8.0   952.8    0.00     400    89.2
 210    8:00   89.3    12    5.9    88      8.6   952.8    0.00     423    89.5
 210    8:10   89.9    12    5.5    74      8.6   952.8    0.00     445    90.1
 210    8:20   90.6    12    5.6    71      8.8   952.8    0.00     467    90.6
 210    8:30   91.4    11    5.0    70      7.4   952.8    0.00     488    91.3
 210    8:40   92.3    11    4.2    70      6.7   952.9    0.00     509    92.8
 210    8:50   93.3    11    3.2    73      7.3   952.9    0.00     528    94.5
 210    9:00   94.2    10    4.0    69      6.6   952.9    0.00     547    96.2
 210    9:10   94.9    10    3.9    88      6.9   952.8    0.00     565    97.3
 210    9:20   95.9    10    1.9    71      5.8   952.8    0.00     583    98.3
 210    9:30   96.3    10    2.9    77      5.4   952.6    0.00     598    100.1
 210    9:40   97.7    10    2.6    44      5.3   952.5    0.00     613    101.5
 210    9:50   98.2    10    3.5    20      8.0   952.5    0.00     625    102.0
 210   10:00   98.0    10    3.0    69      8.0   952.5    0.00     640    103.4
 210   10:10  100.7    10    2.6   153      5.8   952.4    0.00     656    103.7
 210   10:20  100.2     9    4.4   100      8.5   952.2    0.00     675    107.7
 210   10:30  100.5     9    4.0   159      7.2   952.1    0.00     678    105.6
 210   10:40  101.7     9    4.4   125      8.4   952.1    0.00     682    108.4
 210   10:50  101.3     9    2.2    86      7.3   951.9    0.00     689    110.7
 210   11:00  101.0     9    3.1   287      6.3   951.9    0.00     696    109.1
 210   11:10  102.5     9    2.8   159      6.4   951.8    0.00     707    111.2
 210   11:20  102.0     9    2.5   162      6.4   951.7    0.00     679    112.1
 210   11:30  103.7     8    1.2    77      5.3   951.5    0.00     710    114.6
 210   11:40  104.0     8    2.3   156      4.7   951.4    0.00     711    115.4
 210   11:50  103.9     8    2.9   227      6.9   951.4    0.00     714    113.4
 210   12:00  103.8     8    3.7   210      6.0   951.2    0.00     717    114.8
 210   12:10  105.6     8    1.6   182      4.5   951.1    0.00     720    117.1
 210   12:20  105.1     8    2.1   239      5.0   950.9    0.00     720    117.5
 210   12:30  105.4     8    2.4   306     11.0   950.8    0.00     729    120.5
 210   12:40  104.5     8    4.5   292     11.5   950.7    0.00     739    119.3
 210   12:50  105.7     8    2.9   252      7.2   950.6    0.00     723    120.1
 210   13:00  104.7     8    3.8   251      8.3   950.6    0.00     718    119.7
 210   13:10  106.0     7    3.8   129      7.4   950.5    0.00     755    123.7
 210   13:20  107.2     7    3.8   136      8.0   950.4    0.00     612    122.7
 210   13:30  106.3     7    4.1   306      8.9   950.2    0.00     662    121.8
 210   13:40  105.9     8    4.3   318      8.0   950.1    0.00     634    123.3
 210   13:50  106.0     7    3.2    90      6.4   949.9    0.00     640    125.7
 210   14:00  108.0     7    2.9   159      6.1   949.8    0.00     616    125.6

Return to Mesquite, Nevada graphs page.


Western Regional Climate Center,wrcc@dri.edu